Impacts METAR Board
IDs:

KMIA - Miami Intl, FL, US

Updated at: 0800 UTC 24 Sep 2018
Potential Impact None Slight Moderate High
Time 23/20Z 23/21Z 23/22Z 23/23Z 24/00Z 24/01Z 24/02Z 24/03Z 24/04Z 24/05Z 24/06Z 24/07Z 24/08Z
Temp88 88 86 84 83 83 83 83 83 82 81 82 81
Dewpt72 74 75 73 75 77 76 76 76 76 76 76 76
Altim29.93 29.92 29.93 29.93 29.94 29.96 29.98 29.98 29.99 29.98 29.97 29.96 29.95
VIS10 10 10 10 10 10 10 10 10 10 10 10 10
CIG250 -- -- -- -- 23 -- -- -- -- -- -- --
CoverBKNSCTSCTSCTSCTBKNSCTSCTSCTSCTSCTSCTSCT
FltCatVFRVFRVFRVFRVFRMVFRVFRVFRVFRVFRVFRVFRVFR
WX--------------------------
WDir110907080909080906070903030
WSpd10 9 8 10 7 8 8 6 4 6 4 4 3
WGst-- -- -- -- -- -- -- -- -- -- -- -- --
Raw hourly METARs
KMIA 231953Z 11010KT 10SM FEW035 SCT130 BKN250 31/22 A2993 RMK AO2 SLP136 T03110222 $
KMIA 232053Z 09009KT 10SM FEW035 FEW075 SCT250 31/23 A2992 RMK AO2 SLP133 T03110233 56014 $
KMIA 232153Z 07008KT 10SM SCT036 SCT130 SCT250 30/24 A2993 RMK AO2 LTG DSNT W SLP136 CB DSNT W AND NW MOV SW T03000239 $
KMIA 232253Z 08010KT 10SM FEW030 FEW055 FEW130 SCT250 29/23 A2993 RMK AO2 SLP136 CB DSNT SE AND W MOV SW T02890228 $
KMIA 232353Z 09007KT 10SM FEW027 FEW055 FEW130 SCT250 28/24 A2994 RMK AO2 SLP139 OCNL LTGIC DSNT W CB DSNT W MOV SW T02830239 10322 20283 51005 $
KMIA 240053Z 09008KT 10SM BKN023 BKN250 28/25 A2996 RMK AO2 SLP146 CONS LTGIC DSNT W CB DSNT W MOV SW T02830250 $
KMIA 240153Z 08008KT 10SM SCT022 SCT250 28/24 A2998 RMK AO2 SLP151 FRQ LTGIC DSNT W CB DSNT W MOV W T02830244 $
KMIA 240253Z 09006KT 10SM FEW024 SCT250 28/24 A2998 RMK AO2 SLP153 T02830244 51015 $
KMIA 240353Z 06004KT 10SM FEW023 SCT250 28/24 A2999 RMK AO2 SLP154 T02830244 $
KMIA 240453Z 07006KT 10SM FEW023 SCT250 28/24 A2998 RMK AO2 SLP152 T02780244 403220256 $
KMIA 240553Z 09004KT 10SM FEW023 SCT250 27/24 A2997 RMK AO2 SLP149 T02720244 10283 20272 58004 $
KMIA 240653Z 03004KT 10SM FEW023TCU FEW070 SCT250 28/24 A2996 RMK AO2 SLP146 TCU E T02780244 $
KMIA 240753Z 03003KT 10SM FEW022TCU SCT070 SCT250 27/24 A2995 RMK AO2 SLP143 TCU S T02720244 $



Page loaded:  08:07 UTC  |   01:07 AM Pacific  |   02:07 AM Mountain  |   03:07 AM Central  |   04:07 AM Eastern

 

ADVISORIES

FORECASTS

FORECASTS

OBSERVATIONS

USER TOOLS

ABOUT US